Time;durP1;ratioP1;P1;durP2;ratioP2;P2;SDS_P1;SDS_P2;PMS_P1;PMS_P2;Temp;Humidity;BMP_temperature;BMP_pressure;BME280_temperature;BME280_humidity;BME280_pressure;Samples;Min_cycle;Max_cycle;Signal;HPM_P1;HPM_P2
2022/03/12 00:00:54;;;;;;;32.13;14.70;;;;;;;;;;6008012;23;20411;-86
2022/03/12 00:03:20;;;;;;;38.55;17.58;;;;;;;;;;6010017;23;20004;-85
2022/03/12 00:05:54;;;;;;;34.28;16.27;;;;;;;;;;6009708;23;20008;-86
2022/03/12 00:08:51;;;;;;;35.97;17.67;;;;;;;;;;6009205;23;20078;-87
2022/03/12 00:11:14;;;;;;;46.95;21.38;;;;;;;;;;6007838;23;20007;-85
2022/03/12 00:13:41;;;;;;;50.75;23.20;;;;;;;;;;6009715;23;20004;-86
2022/03/12 00:16:13;;;;;;;74.43;34.03;;;;;;;;;;6008347;23;20039;-86
2022/03/12 00:18:40;;;;;;;89.32;37.28;;;;;;;;;;6008869;23;20035;-86
2022/03/12 00:21:07;;;;;;;91.72;36.47;;;;;;;;;;6008577;23;20012;-86
2022/03/12 00:23:34;;;;;;;75.10;33.33;;;;;;;;;;6008047;23;20008;-85
2022/03/12 00:26:01;;;;;;;64.18;26.63;;;;;;;;;;6009353;23;20038;-86
2022/03/12 00:28:27;;;;;;;49.47;20.30;;;;;;;;;;6008312;23;20012;-87
2022/03/12 00:30:54;;;;;;;55.47;21.95;;;;;;;;;;6009100;23;20008;-86
2022/03/12 00:33:21;;;;;;;50.28;21.98;;;;;;;;;;6008763;23;20007;-86
2022/03/12 00:35:48;;;;;;;47.65;20.85;;;;;;;;;;6007476;23;20020;-87
2022/03/12 00:38:21;;;;;;;33.05;16.67;;;;;;;;;;6008687;23;20012;-88
2022/03/12 00:40:47;;;;;;;32.22;14.80;;;;;;;;;;6008499;23;20099;-87
2022/03/12 00:43:15;;;;;;;31.75;15.15;;;;;;;;;;6010234;23;20004;-88
2022/03/12 00:45:41;;;;;;;30.10;13.82;;;;;;;;;;6008857;23;20012;-85
2022/03/12 00:48:08;;;;;;;27.33;10.68;;;;;;;;;;6010327;23;19999;-87
2022/03/12 00:50:34;;;;;;;14.85;6.20;;;;;;;;;;6008841;23;20086;-87
2022/03/12 00:53:01;;;;;;;11.88;5.68;;;;;;;;;;6010357;23;20012;-87
2022/03/12 00:55:27;;;;;;;10.52;4.72;;;;;;;;;;6009818;23;20015;-88
2022/03/12 00:57:54;;;;;;;7.47;3.38;;;;;;;;;;6010085;23;20039;-87
2022/03/12 01:00:22;;;;;;;7.05;3.10;;;;;;;;;;6008382;23;20004;-87
2022/03/12 01:02:49;;;;;;;10.48;4.10;;;;;;;;;;6007877;23;20043;-87
2022/03/12 01:05:16;;;;;;;10.27;4.47;;;;;;;;;;6009666;23;20018;-88
2022/03/12 01:07:43;;;;;;;15.15;6.68;;;;;;;;;;5985355;23;20032;-88
2022/03/12 01:10:10;;;;;;;14.13;6.50;;;;;;;;;;6009971;23;20424;-89
2022/03/12 01:12:36;;;;;;;13.82;6.20;;;;;;;;;;6008475;23;20008;-87
2022/03/12 01:15:04;;;;;;;11.90;5.40;;;;;;;;;;6009519;23;20098;-88
2022/03/12 01:17:32;;;;;;;10.93;5.65;;;;;;;;;;6008378;23;20015;-90
2022/03/12 01:20:00;;;;;;;12.63;5.70;;;;;;;;;;6007972;23;20075;-88
2022/03/12 01:22:36;;;;;;;9.23;4.80;;;;;;;;;;6008610;23;20004;-87
2022/03/12 01:25:03;;;;;;;10.10;5.38;;;;;;;;;;6008002;23;20099;-89
2022/03/12 01:27:30;;;;;;;11.02;5.93;;;;;;;;;;6009249;23;20052;-90
2022/03/12 01:29:56;;;;;;;11.20;5.20;;;;;;;;;;6008807;23;20015;-88
2022/03/12 01:32:22;;;;;;;10.27;6.22;;;;;;;;;;6011300;23;20000;-87
2022/03/12 01:34:49;;;;;;;8.43;4.20;;;;;;;;;;6010117;23;20099;-89
2022/03/12 01:37:19;;;;;;;12.15;5.63;;;;;;;;;;6009073;23;20015;-88
2022/03/12 01:39:48;;;;;;;10.70;5.57;;;;;;;;;;6010741;23;20004;-87
2022/03/12 01:42:15;;;;;;;12.00;4.80;;;;;;;;;;6011535;23;20016;-88
2022/03/12 01:44:42;;;;;;;7.80;4.20;;;;;;;;;;6010351;23;20420;-87
2022/03/12 01:47:10;;;;;;;9.30;4.68;;;;;;;;;;6011682;23;20003;-88
2022/03/12 01:49:36;;;;;;;8.05;4.47;;;;;;;;;;5987536;23;20040;-88
2022/03/12 01:52:03;;;;;;;8.75;4.50;;;;;;;;;;6010697;23;20012;-89
2022/03/12 01:54:29;;;;;;;8.98;4.18;;;;;;;;;;6010192;23;20518;-87
2022/03/12 01:56:57;;;;;;;8.00;4.15;;;;;;;;;;6011460;23;20116;-88
2022/03/12 01:59:24;;;;;;;7.15;4.38;;;;;;;;;;6010788;23;20007;-87
2022/03/12 02:01:54;;;;;;;8.52;4.72;;;;;;;;;;6008311;23;20420;-87
2022/03/12 02:04:22;;;;;;;9.13;5.47;;;;;;;;;;6010174;23;20131;-86
2022/03/12 02:06:50;;;;;;;9.45;5.15;;;;;;;;;;6009096;23;20377;-87
2022/03/12 02:09:17;;;;;;;8.23;4.60;;;;;;;;;;6009293;23;20014;-88
2022/03/12 02:11:45;;;;;;;13.55;5.30;;;;;;;;;;6006540;23;20008;-88
2022/03/12 02:14:12;;;;;;;8.90;4.88;;;;;;;;;;6008996;23;20014;-88
2022/03/12 02:16:39;;;;;;;7.03;4.05;;;;;;;;;;6010725;23;20019;-88
2022/03/12 02:19:05;;;;;;;7.20;4.40;;;;;;;;;;6011287;23;20059;-89
2022/03/12 02:21:34;;;;;;;9.40;4.68;;;;;;;;;;6010355;23;20000;-87
2022/03/12 02:24:01;;;;;;;9.60;5.25;;;;;;;;;;6010587;23;20007;-87
2022/03/12 02:26:28;;;;;;;9.20;5.43;;;;;;;;;;6010547;23;20004;-88
2022/03/12 02:28:56;;;;;;;10.75;5.30;;;;;;;;;;6009001;23;20012;-87
2022/03/12 02:31:25;;;;;;;10.07;4.88;;;;;;;;;;6009842;23;20078;-88
2022/03/12 02:33:52;;;;;;;8.13;5.32;;;;;;;;;;6015159;23;20079;-87
2022/03/12 02:36:21;;;;;;;10.45;5.25;;;;;;;;;;6013926;23;20035;-87
2022/03/12 02:38:49;;;;;;;9.27;5.65;;;;;;;;;;6039136;23;20008;-87
2022/03/12 02:41:20;;;;;;;12.38;6.38;;;;;;;;;;6014994;23;20003;-88
2022/03/12 02:43:46;;;;;;;14.00;6.13;;;;;;;;;;6014382;23;20454;-87
2022/03/12 02:46:13;;;;;;;14.07;7.18;;;;;;;;;;6014485;23;20375;-87
2022/03/12 02:48:40;;;;;;;15.70;7.22;;;;;;;;;;6013986;23;20397;-88
2022/03/12 02:51:06;;;;;;;13.57;7.65;;;;;;;;;;6013805;23;20453;-88
2022/03/12 02:53:33;;;;;;;15.80;9.02;;;;;;;;;;6038727;23;20008;-88
2022/03/12 02:55:59;;;;;;;16.65;9.32;;;;;;;;;;6013898;23;20071;-88
2022/03/12 02:58:27;;;;;;;17.25;10.23;;;;;;;;;;6013783;23;20018;-87
2022/03/12 03:00:53;;;;;;;21.73;11.18;;;;;;;;;;6039141;23;20010;-88
2022/03/12 03:03:20;;;;;;;22.90;13.18;;;;;;;;;;6014777;23;20051;-89
2022/03/12 03:05:47;;;;;;;20.92;12.70;;;;;;;;;;6014434;23;20018;-88
2022/03/12 03:08:18;;;;;;;22.27;13.20;;;;;;;;;;6013944;23;20003;-86
2022/03/12 03:10:45;;;;;;;24.58;13.68;;;;;;;;;;6039251;23;20034;-87
2022/03/12 03:13:18;;;;;;;20.40;12.57;;;;;;;;;;6013789;23;20011;-88
2022/03/12 03:15:49;;;;;;;24.17;13.32;;;;;;;;;;6039104;23;20019;-87
2022/03/12 03:18:16;;;;;;;25.17;13.77;;;;;;;;;;6013489;23;20008;-87
2022/03/12 03:20:46;;;;;;;24.13;12.90;;;;;;;;;;6038751;23;20328;-87
2022/03/12 03:23:13;;;;;;;27.30;13.50;;;;;;;;;;6038531;23;20086;-87
2022/03/12 03:25:40;;;;;;;24.77;12.95;;;;;;;;;;6038913;23;20007;-87
2022/03/12 03:28:07;;;;;;;26.65;12.88;;;;;;;;;;6013627;23;20220;-87
2022/03/12 03:30:35;;;;;;;25.70;13.02;;;;;;;;;;6038230;23;20030;-87
2022/03/12 03:33:02;;;;;;;23.55;13.35;;;;;;;;;;6013624;23;20017;-87
2022/03/12 03:35:28;;;;;;;19.70;12.07;;;;;;;;;;6038241;23;20019;-87
2022/03/12 03:37:55;;;;;;;24.10;12.18;;;;;;;;;;6013381;23;20012;-88
2022/03/12 03:40:21;;;;;;;24.50;11.95;;;;;;;;;;6013704;23;20075;-87
2022/03/12 03:42:48;;;;;;;24.60;11.60;;;;;;;;;;6013270;23;20011;-87
2022/03/12 03:45:21;;;;;;;23.27;11.98;;;;;;;;;;6013626;23;20352;-88
2022/03/12 03:47:47;;;;;;;26.52;12.98;;;;;;;;;;6038351;23;20015;-88
2022/03/12 03:50:14;;;;;;;22.63;12.45;;;;;;;;;;6013505;23;20067;-87
2022/03/12 03:52:40;;;;;;;21.17;11.65;;;;;;;;;;6013471;23;20007;-88
2022/03/12 03:55:07;;;;;;;23.92;9.98;;;;;;;;;;6012491;23;20015;-88
2022/03/12 03:57:33;;;;;;;23.23;10.02;;;;;;;;;;6013975;23;20011;-89
2022/03/12 03:59:59;;;;;;;17.33;9.35;;;;;;;;;;6014685;23;20011;-89
2022/03/12 04:02:26;;;;;;;15.93;9.13;;;;;;;;;;6014740;23;20004;-89
2022/03/12 04:04:53;;;;;;;17.48;9.68;;;;;;;;;;6014452;23;20341;-88
2022/03/12 04:07:19;;;;;;;24.15;12.13;;;;;;;;;;6039439;23;20003;-88
2022/03/12 04:09:45;;;;;;;22.30;12.15;;;;;;;;;;6014136;23;20090;-89
2022/03/12 04:12:12;;;;;;;28.25;13.90;;;;;;;;;;6014406;23;20003;-91
2022/03/12 04:14:38;;;;;;;38.85;20.85;;;;;;;;;;6014582;23;20008;-91
2022/03/12 04:17:05;;;;;;;37.83;17.38;;;;;;;;;;6039799;23;20051;-94
2022/03/12 04:19:33;;;;;;;27.20;12.73;;;;;;;;;;6038955;23;20025;-90
2022/03/12 04:21:59;;;;;;;22.65;12.20;;;;;;;;;;6014528;23;20003;-90
2022/03/12 04:24:25;;;;;;;21.17;10.05;;;;;;;;;;6014518;23;20018;-90
2022/03/12 04:26:53;;;;;;;14.80;7.05;;;;;;;;;;6014253;23;20431;-90
2022/03/12 04:29:19;;;;;;;13.23;6.07;;;;;;;;;;6014791;23;20011;-90
2022/03/12 04:31:47;;;;;;;15.80;7.28;;;;;;;;;;6013043;23;20008;-89
2022/03/12 04:34:14;;;;;;;11.63;6.82;;;;;;;;;;6013934;23;20019;-89
2022/03/12 04:36:46;;;;;;;16.98;8.30;;;;;;;;;;6038788;23;20022;-88
2022/03/12 04:39:12;;;;;;;16.60;8.25;;;;;;;;;;6014214;23;20007;-90
2022/03/12 04:41:39;;;;;;;16.27;7.75;;;;;;;;;;6014165;23;20007;-89
2022/03/12 04:44:07;;;;;;;12.98;7.25;;;;;;;;;;6014483;23;20071;-89
2022/03/12 04:46:34;;;;;;;22.00;10.25;;;;;;;;;;6039244;23;20308;-89
2022/03/12 04:49:00;;;;;;;31.65;12.98;;;;;;;;;;6039019;23;20011;-89
2022/03/12 04:51:28;;;;;;;33.28;14.45;;;;;;;;;;6014422;23;20008;-89
2022/03/12 04:54:00;;;;;;;27.08;13.00;;;;;;;;;;6039507;23;20011;-90
2022/03/12 04:56:27;;;;;;;29.77;13.80;;;;;;;;;;6014405;23;20023;-90
2022/03/12 04:58:54;;;;;;;26.00;13.43;;;;;;;;;;6039418;23;20009;-93
2022/03/12 05:01:20;;;;;;;28.30;13.32;;;;;;;;;;5991274;23;20075;-90
2022/03/12 05:03:47;;;;;;;25.92;12.77;;;;;;;;;;6014468;23;20014;-90
2022/03/12 05:06:15;;;;;;;18.90;9.43;;;;;;;;;;6015610;23;20007;-90
2022/03/12 05:08:41;;;;;;;14.18;8.20;;;;;;;;;;6016421;23;20000;-89
2022/03/12 05:11:08;;;;;;;14.63;6.28;;;;;;;;;;6015574;23;20066;-89
2022/03/12 05:13:34;;;;;;;12.85;6.82;;;;;;;;;;6015602;23;20077;-90
2022/03/12 05:16:06;;;;;;;11.07;5.93;;;;;;;;;;6016180;23;20035;-88
2022/03/12 05:18:33;;;;;;;25.27;17.17;;;;;;;;;;6015595;23;20003;-89
2022/03/12 05:21:03;;;;;;;31.40;21.60;;;;;;;;;;6016083;23;20094;-88
2022/03/12 05:23:29;;;;;;;41.13;25.50;;;;;;;;;;6040135;23;20007;-90
2022/03/12 05:25:56;;;;;;;43.60;25.63;;;;;;;;;;6014832;23;20488;-90
2022/03/12 05:28:26;;;;;;;54.08;29.70;;;;;;;;;;6040187;23;20434;-88
2022/03/12 05:30:57;;;;;;;33.65;17.30;;;;;;;;;;6040586;23;20087;-87
2022/03/12 05:33:23;;;;;;;26.35;14.00;;;;;;;;;;6015263;23;20003;-88
2022/03/12 05:35:53;;;;;;;30.65;15.55;;;;;;;;;;6040173;23;20111;-87
2022/03/12 05:38:20;;;;;;;22.98;10.85;;;;;;;;;;6015177;23;20408;-86
2022/03/12 05:40:48;;;;;;;22.30;12.05;;;;;;;;;;6014853;23;20427;-85
2022/03/12 05:43:15;;;;;;;24.80;10.95;;;;;;;;;;6014853;23;20015;-86
2022/03/12 05:45:45;;;;;;;23.33;12.10;;;;;;;;;;6039287;23;20007;-86
2022/03/12 05:48:11;;;;;;;19.55;11.23;;;;;;;;;;6040027;23;19999;-88
2022/03/12 05:50:38;;;;;;;33.13;21.30;;;;;;;;;;6039789;23;20004;-87
2022/03/12 05:53:08;;;;;;;15.45;7.82;;;;;;;;;;6015644;23;20008;-86
2022/03/12 05:55:36;;;;;;;7.60;4.18;;;;;;;;;;6015104;23;20019;-86
2022/03/12 05:58:02;;;;;;;14.23;7.57;;;;;;;;;;6039447;23;20005;-87
2022/03/12 06:00:29;;;;;;;9.77;4.72;;;;;;;;;;6014056;23;20019;-86
2022/03/12 06:02:58;;;;;;;10.75;4.85;;;;;;;;;;6039681;23;20007;-87
2022/03/12 06:05:25;;;;;;;27.25;16.48;;;;;;;;;;6012592;23;20094;-87
2022/03/12 06:07:52;;;;;;;10.90;4.75;;;;;;;;;;6015611;23;20428;-86
2022/03/12 06:10:23;;;;;;;8.13;4.07;;;;;;;;;;6041073;23;20018;-87
2022/03/12 06:12:51;;;;;;;10.77;5.53;;;;;;;;;;6014029;23;20035;-85
2022/03/12 06:15:18;;;;;;;13.50;5.60;;;;;;;;;;6014649;23;20015;-89
2022/03/12 06:17:46;;;;;;;9.68;5.03;;;;;;;;;;6015582;23;20007;-87
2022/03/12 06:20:14;;;;;;;9.30;5.13;;;;;;;;;;6040553;23;19995;-87
2022/03/12 06:22:40;;;;;;;11.55;4.88;;;;;;;;;;6040183;23;20002;-87
2022/03/12 06:25:08;;;;;;;6.13;3.22;;;;;;;;;;6039911;23;20022;-87
2022/03/12 06:27:35;;;;;;;6.30;3.22;;;;;;;;;;6040745;23;20047;-86
2022/03/12 06:30:02;;;;;;;7.05;2.70;;;;;;;;;;6015211;23;20027;-87
2022/03/12 06:32:31;;;;;;;5.30;2.42;;;;;;;;;;6038318;23;20004;-88
2022/03/12 06:34:58;;;;;;;4.28;1.83;;;;;;;;;;6009926;23;20034;-88
2022/03/12 06:37:29;;;;;;;4.38;1.58;;;;;;;;;;6011916;23;20012;-87
2022/03/12 06:39:56;;;;;;;5.10;1.45;;;;;;;;;;6011231;23;20004;-88
2022/03/12 06:42:29;;;;;;;4.20;1.52;;;;;;;;;;6010529;23;20128;-87
2022/03/12 06:44:56;;;;;;;4.80;1.55;;;;;;;;;;5988890;23;20332;-88
2022/03/12 06:47:28;;;;;;;6.80;3.85;;;;;;;;;;6011766;23;19999;-86
2022/03/12 06:49:55;;;;;;;9.27;4.05;;;;;;;;;;6010426;23;20003;-87
2022/03/12 06:52:21;;;;;;;10.77;5.20;;;;;;;;;;6010617;23;20007;-87
2022/03/12 06:54:47;;;;;;;11.73;6.43;;;;;;;;;;6009588;23;20007;-86
2022/03/12 06:57:14;;;;;;;12.93;6.93;;;;;;;;;;6008670;23;20063;-86
2022/03/12 06:59:40;;;;;;;14.65;8.27;;;;;;;;;;6009483;23;20008;-87
2022/03/12 07:02:06;;;;;;;18.95;9.45;;;;;;;;;;6008933;23;20018;-91
2022/03/12 07:04:33;;;;;;;20.23;10.85;;;;;;;;;;6011248;23;20004;-88
2022/03/12 07:07:01;;;;;;;15.68;9.70;;;;;;;;;;6010411;23;20035;-88
2022/03/12 07:09:28;;;;;;;16.10;9.98;;;;;;;;;;6011508;23;20008;-88
2022/03/12 07:11:58;;;;;;;16.80;9.52;;;;;;;;;;6009945;23;20718;-90
2022/03/12 07:14:27;;;;;;;14.55;8.02;;;;;;;;;;6012210;23;20023;-87
2022/03/12 07:16:55;;;;;;;11.27;7.40;;;;;;;;;;6010259;23;20341;-89
2022/03/12 07:19:21;;;;;;;15.35;8.50;;;;;;;;;;6010717;23;20008;-88
2022/03/12 07:21:49;;;;;;;12.20;7.60;;;;;;;;;;6011868;23;20094;-88
2022/03/12 07:24:16;;;;;;;13.88;8.10;;;;;;;;;;6010086;23;20032;-87
2022/03/12 07:26:43;;;;;;;13.00;8.07;;;;;;;;;;6010105;23;20008;-87
2022/03/12 07:29:09;;;;;;;15.82;7.80;;;;;;;;;;6009725;23;20031;-87
2022/03/12 07:31:37;;;;;;;15.02;8.80;;;;;;;;;;6009588;23;20010;-87
2022/03/12 07:34:05;;;;;;;14.25;9.40;;;;;;;;;;6011053;23;20007;-88
2022/03/12 07:36:31;;;;;;;14.18;7.63;;;;;;;;;;6014889;23;20026;-87
2022/03/12 07:38:58;;;;;;;11.68;6.40;;;;;;;;;;6039384;23;20004;-89
2022/03/12 07:41:25;;;;;;;11.18;5.95;;;;;;;;;;6014541;23;20007;-86
2022/03/12 07:43:53;;;;;;;12.52;7.15;;;;;;;;;;6014558;23;20114;-86
2022/03/12 07:46:19;;;;;;;9.95;5.63;;;;;;;;;;6013858;23;20011;-87
2022/03/12 07:48:45;;;;;;;10.40;5.82;;;;;;;;;;6014364;23;20027;-87
2022/03/12 07:51:13;;;;;;;11.73;5.95;;;;;;;;;;6039303;23;20023;-87
2022/03/12 07:53:39;;;;;;;15.07;6.25;;;;;;;;;;6014510;23;20008;-88
2022/03/12 07:56:07;;;;;;;10.40;6.20;;;;;;;;;;6014173;23;20340;-86
2022/03/12 07:58:33;;;;;;;8.50;5.32;;;;;;;;;;6013742;23;20030;-88
2022/03/12 08:01:00;;;;;;;8.57;5.22;;;;;;;;;;6014450;23;20063;-87
2022/03/12 08:03:26;;;;;;;8.93;6.03;;;;;;;;;;6039774;23;20008;-87
2022/03/12 08:05:53;;;;;;;12.55;5.93;;;;;;;;;;6013162;23;20431;-89
2022/03/12 08:08:20;;;;;;;11.43;6.25;;;;;;;;;;6012952;23;20327;-86
2022/03/12 08:13:31;;;;;;;13.57;8.23;;;;;;;;;;6039306;23;20057;-89
2022/03/12 08:15:59;;;;;;;17.83;9.98;;;;;;;;;;6014357;23;20347;-90
2022/03/12 08:18:26;;;;;;;14.30;8.95;;;;;;;;;;6014720;23;20415;-87
2022/03/12 08:20:52;;;;;;;14.13;8.73;;;;;;;;;;6014715;23;20094;-88
2022/03/12 08:23:19;;;;;;;19.98;9.48;;;;;;;;;;6014293;23;20364;-90
2022/03/12 08:25:45;;;;;;;13.65;7.70;;;;;;;;;;6013905;23;20067;-89
2022/03/12 08:28:13;;;;;;;16.15;8.40;;;;;;;;;;6014984;23;20050;-91
2022/03/12 08:30:39;;;;;;;14.68;9.02;;;;;;;;;;6039082;23;20008;-91
2022/03/12 08:33:05;;;;;;;12.35;6.82;;;;;;;;;;6039796;23;20006;-91
2022/03/12 08:35:32;;;;;;;14.32;6.75;;;;;;;;;;6014402;23;20087;-89
2022/03/12 08:37:58;;;;;;;11.13;6.65;;;;;;;;;;6014891;23;20018;-90
2022/03/12 08:40:25;;;;;;;16.38;7.40;;;;;;;;;;6014572;23;20033;-89
2022/03/12 08:42:53;;;;;;;14.57;7.70;;;;;;;;;;6013205;23;20086;-91
2022/03/12 08:45:19;;;;;;;17.17;7.97;;;;;;;;;;6014566;23;20011;-91
2022/03/12 08:47:46;;;;;;;14.23;7.78;;;;;;;;;;6040372;23;20073;-92
2022/03/12 08:50:12;;;;;;;14.63;7.75;;;;;;;;;;6014450;23;20389;-91
2022/03/12 08:52:39;;;;;;;16.00;8.65;;;;;;;;;;6014799;23;20063;-93
2022/03/12 08:55:06;;;;;;;13.13;7.47;;;;;;;;;;6016102;23;20011;-91
2022/03/12 08:57:32;;;;;;;12.65;7.28;;;;;;;;;;6015052;23;20010;-93
2022/03/12 08:59:59;;;;;;;15.43;7.95;;;;;;;;;;6014739;23;20427;-91
2022/03/12 09:02:25;;;;;;;13.88;7.97;;;;;;;;;;6040357;23;20011;-92
2022/03/12 09:04:52;;;;;;;13.10;7.70;;;;;;;;;;6037941;23;20009;-91
2022/03/12 09:07:20;;;;;;;13.88;6.57;;;;;;;;;;6007727;23;20020;-91
2022/03/12 09:09:46;;;;;;;15.27;7.28;;;;;;;;;;6015066;23;20007;-91
2022/03/12 09:12:12;;;;;;;15.15;8.05;;;;;;;;;;6011827;23;20004;-91
2022/03/12 09:14:39;;;;;;;14.98;8.38;;;;;;;;;;6014645;23;20063;-92
2022/03/12 09:17:05;;;;;;;14.30;7.97;;;;;;;;;;6015070;23;20046;-91
2022/03/12 09:19:32;;;;;;;13.43;8.10;;;;;;;;;;6014835;23;20008;-92
2022/03/12 09:21:59;;;;;;;14.52;7.45;;;;;;;;;;6013262;23;20007;-93
2022/03/12 09:24:26;;;;;;;12.65;7.22;;;;;;;;;;6013535;23;20099;-92
2022/03/12 09:26:52;;;;;;;16.35;7.88;;;;;;;;;;6014372;23;20095;-91
2022/03/12 09:29:18;;;;;;;18.15;7.88;;;;;;;;;;6014642;23;20066;-92
2022/03/12 09:31:45;;;;;;;14.57;7.50;;;;;;;;;;6014934;23;20007;-92
2022/03/12 09:34:11;;;;;;;14.93;8.52;;;;;;;;;;6014325;23;20056;-92
2022/03/12 09:36:40;;;;;;;15.07;7.95;;;;;;;;;;6039145;23;20023;-94
2022/03/12 09:39:07;;;;;;;13.23;7.88;;;;;;;;;;6014537;23;20772;-92
2022/03/12 09:41:34;;;;;;;24.83;9.15;;;;;;;;;;6014417;23;20034;-91
2022/03/12 09:44:01;;;;;;;16.75;7.57;;;;;;;;;;6014394;23;20094;-91
2022/03/12 09:46:27;;;;;;;16.02;7.50;;;;;;;;;;6014276;23;20439;-91
2022/03/12 09:48:54;;;;;;;11.95;6.40;;;;;;;;;;6038955;23;20083;-92
2022/03/12 09:51:21;;;;;;;11.40;7.60;;;;;;;;;;6013929;23;20003;-93
2022/03/12 09:53:48;;;;;;;14.52;7.88;;;;;;;;;;6016679;23;20052;-95
2022/03/12 09:56:14;;;;;;;13.90;7.05;;;;;;;;;;6019434;23;20114;-94
2022/03/12 09:58:41;;;;;;;18.05;7.38;;;;;;;;;;6018115;23;20086;-93
2022/03/12 10:01:07;;;;;;;14.32;7.63;;;;;;;;;;6016446;23;20042;-92
2022/03/12 10:03:34;;;;;;;13.32;7.53;;;;;;;;;;6016589;23;20015;-93
2022/03/12 10:06:00;;;;;;;12.88;7.72;;;;;;;;;;6016340;23;20007;-90
2022/03/12 10:08:26;;;;;;;12.00;7.00;;;;;;;;;;6014744;23;20007;-90
2022/03/12 10:10:52;;;;;;;13.68;7.22;;;;;;;;;;6015858;23;20419;-90
2022/03/12 10:13:19;;;;;;;13.68;6.60;;;;;;;;;;6039685;23;20007;-92
2022/03/12 10:15:46;;;;;;;14.77;7.28;;;;;;;;;;6016359;23;20023;-89
2022/03/12 10:18:12;;;;;;;11.90;6.75;;;;;;;;;;6011443;23;20483;-89
2022/03/12 10:20:39;;;;;;;12.80;6.80;;;;;;;;;;6038728;23;20014;-92
2022/03/12 10:23:08;;;;;;;11.43;6.43;;;;;;;;;;6014475;23;20023;-89
2022/03/12 10:25:35;;;;;;;14.02;7.55;;;;;;;;;;6014708;23;20004;-91
2022/03/12 10:28:01;;;;;;;14.80;7.82;;;;;;;;;;6015669;23;20015;-92
2022/03/12 10:30:28;;;;;;;13.90;8.05;;;;;;;;;;6015751;23;20017;-90
2022/03/12 10:32:54;;;;;;;12.82;7.25;;;;;;;;;;6016018;23;20034;-91
2022/03/12 10:35:22;;;;;;;14.95;7.85;;;;;;;;;;6014683;23;20058;-91
2022/03/12 10:37:49;;;;;;;17.98;8.07;;;;;;;;;;6041030;23;20034;-90
2022/03/12 10:40:20;;;;;;;16.25;7.60;;;;;;;;;;6040178;23;20058;-91
2022/03/12 10:42:49;;;;;;;12.90;7.28;;;;;;;;;;6015697;23;20079;-91
2022/03/12 10:45:20;;;;;;;14.80;8.07;;;;;;;;;;6015230;23;20043;-92
2022/03/12 10:47:57;;;;;;;16.52;8.00;;;;;;;;;;6040662;23;20553;-94
2022/03/12 10:50:28;;;;;;;16.08;7.75;;;;;;;;;;6016194;23;20010;-94
2022/03/12 10:52:59;;;;;;;14.80;8.77;;;;;;;;;;6019409;23;20038;-91
2022/03/12 10:55:25;;;;;;;13.80;8.23;;;;;;;;;;6014998;23;20014;-93
2022/03/12 10:57:56;;;;;;;11.90;7.22;;;;;;;;;;6040996;23;20379;-92
2022/03/12 11:00:23;;;;;;;11.73;8.02;;;;;;;;;;6015605;23;20416;-92
2022/03/12 11:02:57;;;;;;;12.15;6.72;;;;;;;;;;6014172;23;20011;-92
2022/03/12 11:05:43;;;;;;;14.27;7.07;;;;;;;;;;6015667;23;20095;-94
2022/03/12 11:08:16;;;;;;;10.50;6.57;;;;;;;;;;6017091;23;20007;-93
2022/03/12 11:10:50;;;;;;;14.10;6.68;;;;;;;;;;6017114;23;20031;-93
2022/03/12 11:13:27;;;;;;;10.02;5.88;;;;;;;;;;6016327;23;20031;-92
2022/03/12 11:16:14;;;;;;;10.40;6.05;;;;;;;;;;6015448;23;20011;-91
2022/03/12 11:18:53;;;;;;;16.25;6.93;;;;;;;;;;6015035;23;20007;-92
2022/03/12 11:21:35;;;;;;;12.55;6.20;;;;;;;;;;6015443;23;20007;-93
2022/03/12 11:24:03;;;;;;;12.63;6.47;;;;;;;;;;6015596;23;20048;-90
2022/03/12 11:26:30;;;;;;;14.45;7.22;;;;;;;;;;6015674;23;20035;-93
2022/03/12 11:28:59;;;;;;;12.25;7.32;;;;;;;;;;6015451;23;20035;-91
2022/03/12 11:31:42;;;;;;;13.70;7.43;;;;;;;;;;6040543;23;20059;-92
2022/03/12 11:34:20;;;;;;;11.27;6.57;;;;;;;;;;6015024;23;20038;-92
2022/03/12 11:36:48;;;;;;;11.07;6.38;;;;;;;;;;6040726;23;20027;-92
2022/03/12 11:39:19;;;;;;;9.95;6.00;;;;;;;;;;6015411;23;20037;-92
2022/03/12 11:42:00;;;;;;;11.60;6.28;;;;;;;;;;6040282;23;20078;-92
2022/03/12 11:44:27;;;;;;;13.88;6.28;;;;;;;;;;6015062;23;20008;-92
2022/03/12 11:46:54;;;;;;;16.02;6.25;;;;;;;;;;6039695;23;20006;-92
2022/03/12 11:49:21;;;;;;;14.32;7.07;;;;;;;;;;6011279;23;20011;-92
2022/03/12 11:51:47;;;;;;;16.95;7.90;;;;;;;;;;6013207;23;19999;-91
2022/03/12 11:54:13;;;;;;;17.15;6.43;;;;;;;;;;6013577;23;20061;-90
2022/03/12 11:56:40;;;;;;;10.90;6.85;;;;;;;;;;6014658;23;20126;-93
2022/03/12 11:59:06;;;;;;;12.00;7.80;;;;;;;;;;6014410;23;20081;-92
2022/03/12 12:01:37;;;;;;;11.63;6.93;;;;;;;;;;6013981;23;20398;-92
2022/03/12 12:04:03;;;;;;;13.05;8.00;;;;;;;;;;6010512;23;20015;-89
2022/03/12 12:06:30;;;;;;;14.18;7.65;;;;;;;;;;6013639;23;20086;-92
2022/03/12 12:08:57;;;;;;;15.73;6.72;;;;;;;;;;6040242;23;20062;-93
2022/03/12 12:11:23;;;;;;;15.00;7.85;;;;;;;;;;6015335;23;20007;-94
2022/03/12 12:13:50;;;;;;;15.57;7.20;;;;;;;;;;6015334;23;20012;-93
2022/03/12 12:16:18;;;;;;;11.50;7.50;;;;;;;;;;6015171;23;20011;-94
2022/03/12 12:18:45;;;;;;;13.82;7.75;;;;;;;;;;6040472;23;20004;-93
2022/03/12 12:21:19;;;;;;;12.77;7.32;;;;;;;;;;6014209;23;20015;-93
2022/03/12 12:23:47;;;;;;;11.15;7.07;;;;;;;;;;6015566;23;20007;-94
2022/03/12 12:26:13;;;;;;;14.05;7.95;;;;;;;;;;6015920;23;20035;-92
2022/03/12 12:28:53;;;;;;;14.38;7.60;;;;;;;;;;6014999;23;20086;-91
2022/03/12 12:31:26;;;;;;;14.38;7.60;;;;;;;;;;6037848;23;20027;-92
2022/03/12 12:33:52;;;;;;;11.80;7.03;;;;;;;;;;6013921;23;20003;-91
2022/03/12 12:36:22;;;;;;;13.73;7.32;;;;;;;;;;6014225;23;20022;-90
2022/03/12 12:39:06;;;;;;;12.07;6.88;;;;;;;;;;6013983;23;20011;-91
2022/03/12 12:41:56;;;;;;;10.93;6.13;;;;;;;;;;6014995;23;20388;-92
2022/03/12 12:44:40;;;;;;;12.20;6.80;;;;;;;;;;6007026;23;20035;-90
2022/03/12 12:47:08;;;;;;;13.70;7.22;;;;;;;;;;6014393;23;20010;-89
2022/03/12 12:49:40;;;;;;;12.70;6.70;;;;;;;;;;6014086;23;20027;-92
2022/03/12 12:52:06;;;;;;;11.40;6.68;;;;;;;;;;6013105;23;20083;-90
2022/03/12 12:54:53;;;;;;;13.50;7.05;;;;;;;;;;6013931;23;20003;-88
2022/03/12 12:57:19;;;;;;;11.55;6.60;;;;;;;;;;6014809;23;20012;-92
2022/03/12 12:59:48;;;;;;;13.05;7.28;;;;;;;;;;6014685;23;20491;-89
2022/03/12 13:02:14;;;;;;;16.70;7.18;;;;;;;;;;6039478;23;20151;-92
2022/03/12 13:04:46;;;;;;;18.38;9.43;;;;;;;;;;6014579;23;20011;-91
2022/03/12 13:07:19;;;;;;;52.83;28.63;;;;;;;;;;6039770;23;20000;-92
2022/03/12 13:09:49;;;;;;;67.57;33.88;;;;;;;;;;6014952;23;20415;-91
2022/03/12 13:12:15;;;;;;;64.18;35.85;;;;;;;;;;6039305;23;20006;-92
2022/03/12 13:14:43;;;;;;;87.88;52.97;;;;;;;;;;6013569;23;20007;-90
2022/03/12 13:17:11;;;;;;;78.18;45.72;;;;;;;;;;6014451;23;20015;-92
2022/03/12 13:19:44;;;;;;;73.80;42.40;;;;;;;;;;6013992;23;20030;-91
2022/03/12 13:22:12;;;;;;;67.85;40.15;;;;;;;;;;6039032;23;19999;-91
2022/03/12 13:24:52;;;;;;;86.63;45.58;;;;;;;;;;6013875;23;20043;-89
2022/03/12 13:27:29;;;;;;;73.28;37.90;;;;;;;;;;6016538;23;20015;-90
2022/03/12 13:30:18;;;;;;;62.45;31.98;;;;;;;;;;6016346;23;20062;-93
2022/03/12 13:32:49;;;;;;;64.07;34.50;;;;;;;;;;6015683;23;20043;-91
2022/03/12 13:35:20;;;;;;;63.88;34.40;;;;;;;;;;6039452;23;20015;-90
2022/03/12 13:37:47;;;;;;;57.97;35.22;;;;;;;;;;6016310;23;20018;-90
2022/03/12 13:40:14;;;;;;;67.55;35.42;;;;;;;;;;6015611;23;20420;-92
2022/03/12 13:42:41;;;;;;;83.20;52.50;;;;;;;;;;6016415;23;20006;-91
2022/03/12 13:45:07;;;;;;;82.28;50.13;;;;;;;;;;6018374;23;20003;-90
2022/03/12 13:47:37;;;;;;;91.90;55.17;;;;;;;;;;6015886;23;20445;-90
2022/03/12 13:50:04;;;;;;;48.42;29.17;;;;;;;;;;6042217;23;20010;-92
2022/03/12 13:52:30;;;;;;;51.28;28.23;;;;;;;;;;6019107;23;20003;-91
2022/03/12 13:55:06;;;;;;;52.03;29.52;;;;;;;;;;6017468;23;20007;-92
2022/03/12 13:57:35;;;;;;;62.08;35.42;;;;;;;;;;6018052;23;20008;-92
2022/03/12 14:00:09;;;;;;;67.10;34.65;;;;;;;;;;6018914;23;20725;-92
2022/03/12 14:02:43;;;;;;;56.08;30.85;;;;;;;;;;6041345;23;20004;-93
2022/03/12 14:05:09;;;;;;;60.42;32.13;;;;;;;;;;6016001;23;20017;-92
2022/03/12 14:07:37;;;;;;;54.45;32.03;;;;;;;;;;6015578;23;20011;-92
2022/03/12 14:10:07;;;;;;;51.25;30.65;;;;;;;;;;6040118;23;20014;-91
2022/03/12 14:12:33;;;;;;;57.78;31.55;;;;;;;;;;6015488;23;20011;-90
2022/03/12 14:15:00;;;;;;;48.80;30.60;;;;;;;;;;6017113;23;20000;-92
2022/03/12 14:17:28;;;;;;;59.95;33.10;;;;;;;;;;6040965;23;20003;-90
2022/03/12 14:19:57;;;;;;;64.05;34.92;;;;;;;;;;6015761;23;20011;-93
2022/03/12 14:22:23;;;;;;;69.28;39.75;;;;;;;;;;6015190;23;20352;-91
2022/03/12 14:24:53;;;;;;;77.60;42.40;;;;;;;;;;6015338;23;19999;-92
2022/03/12 14:27:22;;;;;;;89.50;45.22;;;;;;;;;;6016564;23;20003;-92
2022/03/12 14:29:48;;;;;;;74.93;42.20;;;;;;;;;;6018133;23;20046;-92
2022/03/12 14:32:16;;;;;;;66.85;35.83;;;;;;;;;;6017890;23;20030;-91
2022/03/12 14:34:44;;;;;;;60.28;34.30;;;;;;;;;;6014926;23;20027;-90
2022/03/12 14:37:11;;;;;;;62.40;35.55;;;;;;;;;;6040103;23;20015;-91